EFMI

Mikkeli Airport

Mikkeli, Finland
METAR EFMI 180820Z AUTO 20003KT 9999 BKN009 M02/M03 Q1017
Observed Flight Rules
Dec-18 @ 08:20 UTC (16 minutes ago) Instrument Flight Rules
Wind Visibility Clouds
200° at 3 knots 10,000+ meters
  • Broken at 900' AGL
Temperatures Readings
Current -2°C / 28°F
Dewpoint -3°C / 27°F
Humidity 93%
Altimeter 30.03" Hg
Pressure 1017 hPa
Elevation 138
METAR EFMI 180820Z AUTO 20003KT 9999 BKN009 M02/M03 Q1017
Observed Flight Rules
Dec-18 @ 08:20 UTC
(16 minutes ago)
IFR
Wind Visibility
200° at 3 knots 10,000+ meters
Clouds
  • Broken at 900' AGL
Temperature Dewpoint
-2°C / 28°F -3°C / 27°F
Humidity Altimeter Pressure
93% 30.03" Hg 1017 hPa